sensor_id;sensor_type;location;lat;lon;timestamp;pressure;altitude;pressure_sealevel;temperature;humidity
8047;BME280;66591;42.660;23.342;2023-01-04T00:01:09;95704.28;;;20.41;49.30
8047;BME280;66591;42.660;23.342;2023-01-04T00:03:35;95716.28;;;20.45;49.47
8047;BME280;66591;42.660;23.342;2023-01-04T00:06:03;95723.09;;;20.44;49.22
8047;BME280;66591;42.660;23.342;2023-01-04T00:08:30;95719.69;;;20.42;49.47
8047;BME280;66591;42.660;23.342;2023-01-04T00:11:06;95723.09;;;20.37;49.80
8047;BME280;66591;42.660;23.342;2023-01-04T00:13:33;95718.78;;;20.37;49.72
8047;BME280;66591;42.660;23.342;2023-01-04T00:16:04;95717.09;;;20.36;50.10
8047;BME280;66591;42.660;23.342;2023-01-04T00:18:31;95719.66;;;20.38;49.94
8047;BME280;66591;42.660;23.342;2023-01-04T00:21:08;95720.53;;;20.40;49.57
8047;BME280;66591;42.660;23.342;2023-01-04T00:23:34;95718.00;;;20.43;49.79
8047;BME280;66591;42.660;23.342;2023-01-04T00:26:00;95717.97;;;20.44;49.42
8047;BME280;66591;42.660;23.342;2023-01-04T00:28:25;95712.88;;;20.46;49.44
8047;BME280;66591;42.660;23.342;2023-01-04T00:30:51;95707.72;;;20.43;49.61
8047;BME280;66591;42.660;23.342;2023-01-04T00:33:16;95715.44;;;20.47;49.54
8047;BME280;66591;42.660;23.342;2023-01-04T00:35:42;95719.72;;;20.48;49.29
8047;BME280;66591;42.660;23.342;2023-01-04T00:38:08;95726.53;;;20.49;49.02
8047;BME280;66591;42.660;23.342;2023-01-04T00:40:33;95714.59;;;20.48;49.13
8047;BME280;66591;42.660;23.342;2023-01-04T00:42:59;95723.13;;;20.50;49.33
8047;BME280;66591;42.660;23.342;2023-01-04T00:45:24;95717.13;;;20.47;49.52
8047;BME280;66591;42.660;23.342;2023-01-04T00:47:50;95711.97;;;20.44;49.40
8047;BME280;66591;42.660;23.342;2023-01-04T00:50:15;95718.00;;;20.46;49.26
8047;BME280;66591;42.660;23.342;2023-01-04T00:52:41;95721.38;;;20.43;49.17
8047;BME280;66591;42.660;23.342;2023-01-04T00:55:07;95723.13;;;20.43;49.44
8047;BME280;66591;42.660;23.342;2023-01-04T00:57:32;95722.25;;;20.42;49.52
8047;BME280;66591;42.660;23.342;2023-01-04T00:59:58;95732.50;;;20.42;49.60
8047;BME280;66591;42.660;23.342;2023-01-04T01:02:24;95729.09;;;20.42;49.50
8047;BME280;66591;42.660;23.342;2023-01-04T01:04:49;95723.09;;;20.41;49.17
8047;BME280;66591;42.660;23.342;2023-01-04T01:07:15;95725.66;;;20.40;49.39
8047;BME280;66591;42.660;23.342;2023-01-04T01:09:40;95725.66;;;20.41;49.37
8047;BME280;66591;42.660;23.342;2023-01-04T01:12:06;95733.38;;;20.43;49.11
8047;BME280;66591;42.660;23.342;2023-01-04T01:14:31;95728.22;;;20.41;48.95
8047;BME280;66591;42.660;23.342;2023-01-04T01:16:57;95747.06;;;20.45;49.09
8047;BME280;66591;42.660;23.342;2023-01-04T01:19:27;95746.19;;;20.40;48.84
8047;BME280;66591;42.660;23.342;2023-01-04T01:21:53;95742.72;;;20.38;49.26
8047;BME280;66591;42.660;23.342;2023-01-04T01:24:20;95747.00;;;20.36;49.45
8047;BME280;66591;42.660;23.342;2023-01-04T01:26:46;95755.56;;;20.38;49.78
8047;BME280;66591;42.660;23.342;2023-01-04T01:29:12;95749.56;;;20.37;49.35
8047;BME280;66591;42.660;23.342;2023-01-04T01:31:39;95741.91;;;20.42;49.16
8047;BME280;66591;42.660;23.342;2023-01-04T01:34:05;95743.63;;;20.43;49.25
8047;BME280;66591;42.660;23.342;2023-01-04T01:36:30;95740.19;;;20.44;49.39
8047;BME280;66591;42.660;23.342;2023-01-04T01:38:56;95734.22;;;20.43;49.23
8047;BME280;66591;42.660;23.342;2023-01-04T01:41:27;95739.34;;;20.43;48.99
8047;BME280;66591;42.660;23.342;2023-01-04T01:43:58;95748.78;;;20.46;49.15
8047;BME280;66591;42.660;23.342;2023-01-04T01:49:09;95738.53;;;20.46;48.98
8047;BME280;66591;42.660;23.342;2023-01-04T01:51:39;95734.22;;;20.46;48.97
8047;BME280;66591;42.660;23.342;2023-01-04T01:54:10;95721.34;;;20.36;49.19
8047;BME280;66591;42.660;23.342;2023-01-04T01:56:38;95732.53;;;20.45;48.95
8047;BME280;66591;42.660;23.342;2023-01-04T01:59:06;95729.94;;;20.44;49.08
8047;BME280;66591;42.660;23.342;2023-01-04T02:01:32;95737.66;;;20.45;49.24
8047;BME280;66591;42.660;23.342;2023-01-04T02:03:58;95723.94;;;20.42;49.18
8047;BME280;66591;42.660;23.342;2023-01-04T02:06:30;95721.38;;;20.42;49.10
8047;BME280;66591;42.660;23.342;2023-01-04T02:08:57;95727.38;;;20.42;49.31
8047;BME280;66591;42.660;23.342;2023-01-04T02:11:25;95725.66;;;20.41;49.24
8047;BME280;66591;42.660;23.342;2023-01-04T02:13:50;95724.78;;;20.41;49.31
8047;BME280;66591;42.660;23.342;2023-01-04T02:19:18;95724.81;;;20.42;48.88
8047;BME280;66591;42.660;23.342;2023-01-04T02:37:52;95720.50;;;20.38;49.41
8047;BME280;66591;42.660;23.342;2023-01-04T02:40:51;95721.38;;;20.39;49.40
8047;BME280;66591;42.660;23.342;2023-01-04T02:43:30;95723.13;;;20.43;49.14
8047;BME280;66591;42.660;23.342;2023-01-04T02:46:28;95720.56;;;20.43;49.22
8047;BME280;66591;42.660;23.342;2023-01-04T02:48:58;95722.25;;;20.42;49.00
8047;BME280;66591;42.660;23.342;2023-01-04T02:51:43;95721.38;;;20.42;48.88
8047;BME280;66591;42.660;23.342;2023-01-04T02:54:14;95725.66;;;20.41;49.04
8047;BME280;66591;42.660;23.342;2023-01-04T03:02:22;95719.66;;;20.41;48.79
8047;BME280;66591;42.660;23.342;2023-01-04T03:05:31;95712.81;;;20.34;48.98
8047;BME280;66591;42.660;23.342;2023-01-04T03:08:33;95718.78;;;20.36;49.09
8047;BME280;66591;42.660;23.342;2023-01-04T03:11:08;95717.94;;;20.34;49.14
8047;BME280;66591;42.660;23.342;2023-01-04T03:14:02;95707.66;;;20.31;48.98
8047;BME280;66591;42.660;23.342;2023-01-04T03:16:30;95721.34;;;20.31;48.82
8047;BME280;66591;42.660;23.342;2023-01-04T03:18:58;95718.75;;;20.30;48.80
8047;BME280;66591;42.660;23.342;2023-01-04T03:21:29;95723.88;;;20.30;48.72
8047;BME280;66591;42.660;23.342;2023-01-04T03:23:57;95711.88;;;20.26;48.78
8047;BME280;66591;42.660;23.342;2023-01-04T03:26:48;95734.16;;;20.28;48.83
8047;BME280;66591;42.660;23.342;2023-01-04T03:29:41;95728.16;;;20.28;48.83
8047;BME280;66591;42.660;23.342;2023-01-04T03:33:16;95734.16;;;20.28;48.77
8047;BME280;66591;42.660;23.342;2023-01-04T03:36:04;95731.56;;;20.30;48.67
8047;BME280;66591;42.660;23.342;2023-01-04T03:38:38;95729.84;;;20.29;48.88
8047;BME280;66591;42.660;23.342;2023-01-04T03:41:34;95720.41;;;20.25;48.75
8047;BME280;66591;42.660;23.342;2023-01-04T03:44:27;95731.56;;;20.30;48.74
8047;BME280;66591;42.660;23.342;2023-01-04T03:47:19;95739.31;;;20.34;48.70
8047;BME280;66591;42.660;23.342;2023-01-04T03:50:25;95731.63;;;20.34;48.78
8047;BME280;66591;42.660;23.342;2023-01-04T03:52:54;95738.47;;;20.38;48.66
8047;BME280;66591;42.660;23.342;2023-01-04T03:55:21;95726.47;;;20.37;48.50
8047;BME280;66591;42.660;23.342;2023-01-04T03:57:48;95742.72;;;20.36;48.57
8047;BME280;66591;42.660;23.342;2023-01-04T04:00:16;95734.19;;;20.34;48.41
8047;BME280;66591;42.660;23.342;2023-01-04T04:02:44;95733.31;;;20.34;48.21
8047;BME280;66591;42.660;23.342;2023-01-04T04:05:20;95736.72;;;20.33;48.35
8047;BME280;66591;42.660;23.342;2023-01-04T04:08:05;95741.00;;;20.31;48.18
8047;BME280;66591;42.660;23.342;2023-01-04T04:10:51;95744.44;;;20.34;48.25
8047;BME280;66591;42.660;23.342;2023-01-04T04:13:17;95740.16;;;20.33;48.21
8047;BME280;66591;42.660;23.342;2023-01-04T04:15:43;95741.00;;;20.32;48.14
8047;BME280;66591;42.660;23.342;2023-01-04T04:18:08;95745.25;;;20.32;48.17
8047;BME280;66591;42.660;23.342;2023-01-04T04:20:34;95747.84;;;20.33;48.15
8047;BME280;66591;42.660;23.342;2023-01-04T04:23:00;95752.13;;;20.36;48.32
8047;BME280;66591;42.660;23.342;2023-01-04T04:25:26;95748.72;;;20.37;48.23
8047;BME280;66591;42.660;23.342;2023-01-04T04:27:52;95749.56;;;20.36;48.28
8047;BME280;66591;42.660;23.342;2023-01-04T04:30:17;95752.13;;;20.34;48.15
8047;BME280;66591;42.660;23.342;2023-01-04T04:32:43;95746.97;;;20.33;48.28
8047;BME280;66591;42.660;23.342;2023-01-04T04:35:09;95745.25;;;20.30;48.24
8047;BME280;66591;42.660;23.342;2023-01-04T04:37:35;95754.66;;;20.33;48.11
8047;BME280;66591;42.660;23.342;2023-01-04T04:40:02;95753.84;;;20.34;48.14
8047;BME280;66591;42.660;23.342;2023-01-04T04:42:28;95759.81;;;20.31;48.35
8047;BME280;66591;42.660;23.342;2023-01-04T04:44:53;95757.22;;;20.33;48.22
8047;BME280;66591;42.660;23.342;2023-01-04T04:47:19;95752.13;;;20.31;48.07
8047;BME280;66591;42.660;23.342;2023-01-04T04:49:45;95757.22;;;20.33;47.98
8047;BME280;66591;42.660;23.342;2023-01-04T04:52:10;95764.06;;;20.32;48.26
8047;BME280;66591;42.660;23.342;2023-01-04T04:54:36;95755.50;;;20.30;48.13
8047;BME280;66591;42.660;23.342;2023-01-04T04:57:01;95764.94;;;20.33;48.06
8047;BME280;66591;42.660;23.342;2023-01-04T04:59:27;95764.94;;;20.33;48.06
8047;BME280;66591;42.660;23.342;2023-01-04T05:01:52;95772.66;;;20.36;47.82
8047;BME280;66591;42.660;23.342;2023-01-04T05:04:18;95779.50;;;20.37;47.97
8047;BME280;66591;42.660;23.342;2023-01-04T05:06:45;95768.34;;;20.35;47.91
8047;BME280;66591;42.660;23.342;2023-01-04T05:09:12;95772.66;;;20.36;48.10
8047;BME280;66591;42.660;23.342;2023-01-04T05:11:38;95770.06;;;20.31;47.87
8047;BME280;66591;42.660;23.342;2023-01-04T05:14:23;95777.78;;;20.36;47.97
8047;BME280;66591;42.660;23.342;2023-01-04T05:16:48;95776.06;;;20.33;48.03
8047;BME280;66591;42.660;23.342;2023-01-04T05:19:14;95774.31;;;20.31;47.96
8047;BME280;66591;42.660;23.342;2023-01-04T05:21:39;95781.16;;;20.32;47.90
8047;BME280;66591;42.660;23.342;2023-01-04T05:24:06;95777.72;;;20.28;48.04
8047;BME280;66591;42.660;23.342;2023-01-04T05:26:32;95775.97;;;20.26;48.11
8047;BME280;66591;42.660;23.342;2023-01-04T05:28:57;95779.38;;;20.25;47.92
8047;BME280;66591;42.660;23.342;2023-01-04T05:31:24;95775.97;;;20.26;47.96
8047;BME280;66591;42.660;23.342;2023-01-04T05:33:50;95787.13;;;20.29;47.91
8047;BME280;66591;42.660;23.342;2023-01-04T05:36:16;95786.28;;;20.32;47.90
8047;BME280;66591;42.660;23.342;2023-01-04T05:38:41;95785.41;;;20.30;47.76
8047;BME280;66591;42.660;23.342;2023-01-04T05:41:07;95792.25;;;20.29;47.79
8047;BME280;66591;42.660;23.342;2023-01-04T05:43:52;95801.66;;;20.30;47.65
8047;BME280;66591;42.660;23.342;2023-01-04T05:46:18;95786.25;;;20.27;47.69
8047;BME280;66591;42.660;23.342;2023-01-04T05:48:43;95791.38;;;20.29;47.68
8047;BME280;66591;42.660;23.342;2023-01-04T05:51:09;95791.38;;;20.29;47.93
8047;BME280;66591;42.660;23.342;2023-01-04T05:53:34;95805.09;;;20.31;47.78
8047;BME280;66591;42.660;23.342;2023-01-04T05:56:00;95798.25;;;20.30;47.80
8047;BME280;66591;42.660;23.342;2023-01-04T05:58:25;95798.25;;;20.30;47.72
8047;BME280;66591;42.660;23.342;2023-01-04T06:00:51;95813.66;;;20.33;47.83
8047;BME280;66591;42.660;23.342;2023-01-04T06:03:16;95798.25;;;20.33;47.97
8047;BME280;66591;42.660;23.342;2023-01-04T06:05:42;95791.44;;;20.35;47.97
8047;BME280;66591;42.660;23.342;2023-01-04T06:08:07;95794.88;;;20.37;48.06
8047;BME280;66591;42.660;23.342;2023-01-04T06:10:33;95792.31;;;20.37;47.84
8047;BME280;66591;42.660;23.342;2023-01-04T06:12:59;95801.72;;;20.36;47.70
8047;BME280;66591;42.660;23.342;2023-01-04T06:15:24;95794.03;;;20.36;47.60
8047;BME280;66591;42.660;23.342;2023-01-04T06:17:50;95800.84;;;20.37;47.86
8047;BME280;66591;42.660;23.342;2023-01-04T06:20:15;95803.44;;;20.39;47.51
8047;BME280;66591;42.660;23.342;2023-01-04T06:22:41;95815.41;;;20.37;47.62
8047;BME280;66591;42.660;23.342;2023-01-04T06:25:08;95811.97;;;20.38;47.66
8047;BME280;66591;42.660;23.342;2023-01-04T06:27:34;95823.09;;;20.37;47.50
8047;BME280;66591;42.660;23.342;2023-01-04T06:29:59;95816.25;;;20.34;47.73
8047;BME280;66591;42.660;23.342;2023-01-04T06:32:25;95803.34;;;20.27;47.73
8047;BME280;66591;42.660;23.342;2023-01-04T06:34:50;95821.38;;;20.34;47.87
8047;BME280;66591;42.660;23.342;2023-01-04T06:37:16;95823.91;;;20.33;47.76
8047;BME280;66591;42.660;23.342;2023-01-04T06:39:41;95825.63;;;20.34;47.75
8047;BME280;66591;42.660;23.342;2023-01-04T06:42:07;95821.38;;;20.34;47.75
8047;BME280;66591;42.660;23.342;2023-01-04T06:44:52;95824.75;;;20.35;47.89
8047;BME280;66591;42.660;23.342;2023-01-04T06:47:18;95818.81;;;20.36;47.71
8047;BME280;66591;42.660;23.342;2023-01-04T06:49:43;95824.78;;;20.36;47.68
8047;BME280;66591;42.660;23.342;2023-01-04T06:52:09;95829.06;;;20.36;47.83
8047;BME280;66591;42.660;23.342;2023-01-04T06:54:34;95822.22;;;20.38;47.60
8047;BME280;66591;42.660;23.342;2023-01-04T06:57:00;95817.97;;;20.37;47.69
8047;BME280;66591;42.660;23.342;2023-01-04T06:59:25;95817.97;;;20.41;47.54
8047;BME280;66591;42.660;23.342;2023-01-04T07:01:51;95829.13;;;20.46;47.34
8047;BME280;66591;42.660;23.342;2023-01-04T07:04:16;95829.16;;;20.48;47.53
8047;BME280;66591;42.660;23.342;2023-01-04T07:06:42;95827.44;;;20.50;47.02
8047;BME280;66591;42.660;23.342;2023-01-04T07:09:07;95829.16;;;20.51;47.15
8047;BME280;66591;42.660;23.342;2023-01-04T07:11:33;95833.47;;;20.53;47.35
8047;BME280;66591;42.660;23.342;2023-01-04T07:13:58;95843.72;;;20.53;47.49
8047;BME280;66591;42.660;23.342;2023-01-04T07:16:24;95842.00;;;20.54;47.77
8047;BME280;66591;42.660;23.342;2023-01-04T07:18:50;95843.72;;;20.53;47.55
8047;BME280;66591;42.660;23.342;2023-01-04T07:21:15;95855.72;;;20.54;47.54
8047;BME280;66591;42.660;23.342;2023-01-04T07:23:41;95851.41;;;20.53;47.45
8047;BME280;66591;42.660;23.342;2023-01-04T07:26:06;95856.53;;;20.55;47.35
8047;BME280;66591;42.660;23.342;2023-01-04T07:28:32;95848.91;;;20.62;47.20
8047;BME280;66591;42.660;23.342;2023-01-04T07:31:16;95853.25;;;20.71;47.00
8047;BME280;66591;42.660;23.342;2023-01-04T07:33:42;95849.84;;;20.72;47.24
8047;BME280;66591;42.660;23.342;2023-01-04T07:36:07;95858.38;;;20.74;46.99
8047;BME280;66591;42.660;23.342;2023-01-04T07:38:33;95850.69;;;20.74;46.91
8047;BME280;66591;42.660;23.342;2023-01-04T07:40:59;95853.25;;;20.74;46.95
8047;BME280;66591;42.660;23.342;2023-01-04T07:44:17;95859.38;;;21.02;47.06
8047;BME280;66591;42.660;23.342;2023-01-04T07:46:43;95859.34;;;20.94;46.87
8047;BME280;66591;42.660;23.342;2023-01-04T07:49:13;95849.06;;;20.87;46.82
8047;BME280;66591;42.660;23.342;2023-01-04T07:51:39;95843.00;;;20.79;46.96
8047;BME280;66591;42.660;23.342;2023-01-04T07:54:05;95851.59;;;20.82;49.26
8047;BME280;66591;42.660;23.342;2023-01-04T07:56:31;95854.19;;;20.87;49.39
8047;BME280;66591;42.660;23.342;2023-01-04T08:01:24;95861.91;;;20.94;54.01
8047;BME280;66591;42.660;23.342;2023-01-04T08:03:51;95860.19;;;20.93;51.09
8047;BME280;66591;42.660;23.342;2023-01-04T08:06:18;95865.28;;;20.84;51.51
8047;BME280;66591;42.660;23.342;2023-01-04T08:08:44;95867.31;;;21.43;50.34
8047;BME280;66591;42.660;23.342;2023-01-04T08:11:20;95864.75;;;21.49;50.61
8047;BME280;66591;42.660;23.342;2023-01-04T08:13:49;95864.59;;;21.11;52.86
8047;BME280;66591;42.660;23.342;2023-01-04T08:16:28;95872.22;;;20.96;52.78
8047;BME280;66591;42.660;23.342;2023-01-04T08:18:58;95873.00;;;20.87;51.98
8047;BME280;66591;42.660;23.342;2023-01-04T08:21:25;95867.84;;;20.83;51.97
8047;BME280;66591;42.660;23.342;2023-01-04T08:23:52;95865.28;;;20.81;51.64
8047;BME280;66591;42.660;23.342;2023-01-04T08:26:18;95877.22;;;20.79;51.54
8047;BME280;66591;42.660;23.342;2023-01-04T08:28:45;95872.97;;;20.80;51.58
8047;BME280;66591;42.660;23.342;2023-01-04T08:31:14;95872.13;;;20.81;52.36
8047;BME280;66591;42.660;23.342;2023-01-04T08:33:41;95867.81;;;20.80;52.19
8047;BME280;66591;42.660;23.342;2023-01-04T08:36:18;95872.13;;;20.81;51.67
8047;BME280;66591;42.660;23.342;2023-01-04T08:38:45;95869.53;;;20.79;51.55
8047;BME280;66591;42.660;23.342;2023-01-04T08:41:12;95873.81;;;20.82;51.77
8047;BME280;66591;42.660;23.342;2023-01-04T08:43:37;95869.56;;;20.82;51.51
8047;BME280;66591;42.660;23.342;2023-01-04T08:46:04;95871.28;;;20.83;51.88
8047;BME280;66591;42.660;23.342;2023-01-04T08:48:33;95872.13;;;20.82;51.92
8047;BME280;66591;42.660;23.342;2023-01-04T08:51:01;95881.50;;;20.82;51.22
8047;BME280;66591;42.660;23.342;2023-01-04T08:53:27;95872.13;;;20.81;51.65
8047;BME280;66591;42.660;23.342;2023-01-04T08:55:53;95872.06;;;20.76;51.69
8047;BME280;66591;42.660;23.342;2023-01-04T08:58:20;95878.09;;;20.78;51.60
8047;BME280;66591;42.660;23.342;2023-01-04T09:00:45;95888.34;;;20.77;51.46
8047;BME280;66591;42.660;23.342;2023-01-04T09:03:11;95877.22;;;20.76;51.10
8047;BME280;66591;42.660;23.342;2023-01-04T09:05:37;95878.91;;;20.74;51.21
8047;BME280;66591;42.660;23.342;2023-01-04T09:08:03;95878.91;;;20.74;50.89
8047;BME280;66591;42.660;23.342;2023-01-04T09:10:29;95875.50;;;20.75;51.14
8047;BME280;66591;42.660;23.342;2023-01-04T09:12:54;95876.34;;;20.76;50.96
8047;BME280;66591;42.660;23.342;2023-01-04T09:15:20;95877.22;;;20.76;51.49
8047;BME280;66591;42.660;23.342;2023-01-04T09:17:48;95868.66;;;20.76;51.34
8047;BME280;66591;42.660;23.342;2023-01-04T09:20:13;95870.41;;;20.78;51.08
8047;BME280;66591;42.660;23.342;2023-01-04T09:22:39;95866.97;;;20.78;50.71
8047;BME280;66591;42.660;23.342;2023-01-04T09:25:05;95866.13;;;20.80;50.96
8047;BME280;66591;42.660;23.342;2023-01-04T09:27:31;95867.84;;;20.83;50.54
8047;BME280;66591;42.660;23.342;2023-01-04T09:29:58;95859.31;;;20.84;51.11
8047;BME280;66591;42.660;23.342;2023-01-04T09:32:24;95858.44;;;20.85;50.91
8047;BME280;66591;42.660;23.342;2023-01-04T09:34:49;95864.44;;;20.84;51.01
8047;BME280;66591;42.660;23.342;2023-01-04T09:37:15;95866.16;;;20.83;50.97
8047;BME280;66591;42.660;23.342;2023-01-04T09:39:41;95863.59;;;20.83;50.38
8047;BME280;66591;42.660;23.342;2023-01-04T09:42:21;95860.16;;;20.81;50.57
8047;BME280;66591;42.660;23.342;2023-01-04T09:44:53;95861.00;;;20.80;50.60
8047;BME280;66591;42.660;23.342;2023-01-04T09:47:46;95858.44;;;20.80;50.37
8047;BME280;66591;42.660;23.342;2023-01-04T09:50:24;95856.72;;;20.81;50.44
8047;BME280;66591;42.660;23.342;2023-01-04T09:53:10;95862.72;;;20.83;50.28
8047;BME280;66591;42.660;23.342;2023-01-04T09:55:43;95855.84;;;20.82;50.59
8047;BME280;66591;42.660;23.342;2023-01-04T09:58:15;95849.88;;;20.83;50.27
8047;BME280;66591;42.660;23.342;2023-01-04T10:00:45;95853.28;;;20.80;50.06
8047;BME280;66591;42.660;23.342;2023-01-04T10:03:16;95853.31;;;20.83;50.18
8047;BME280;66591;42.660;23.342;2023-01-04T10:05:43;95850.75;;;20.83;50.31
8047;BME280;66591;42.660;23.342;2023-01-04T10:08:14;95859.28;;;20.81;49.87
8047;BME280;66591;42.660;23.342;2023-01-04T10:26:58;95851.56;;;20.76;50.00
8047;BME280;66591;42.660;23.342;2023-01-04T10:32:15;95851.56;;;20.79;49.83
8047;BME280;66591;42.660;23.342;2023-01-04T10:34:44;95845.59;;;20.82;50.03
8047;BME280;66591;42.660;23.342;2023-01-04T10:37:18;95850.75;;;20.83;49.82
8047;BME280;66591;42.660;23.342;2023-01-04T10:39:49;95847.34;;;20.86;49.79
8047;BME280;66591;42.660;23.342;2023-01-04T10:50:57;95856.75;;;20.84;49.56
8047;BME280;66591;42.660;23.342;2023-01-04T10:53:46;95856.72;;;20.82;49.59
8047;BME280;66591;42.660;23.342;2023-01-04T10:59:14;95842.16;;;20.78;49.70
8047;BME280;66591;42.660;23.342;2023-01-04T11:01:58;95847.31;;;20.81;49.63
8047;BME280;66591;42.660;23.342;2023-01-04T11:04:34;95842.19;;;20.83;49.57
8047;BME280;66591;42.660;23.342;2023-01-04T11:07:14;95842.19;;;20.83;49.56
8047;BME280;66591;42.660;23.342;2023-01-04T11:12:10;95839.63;;;20.86;49.43
8047;BME280;66591;42.660;23.342;2023-01-04T11:14:37;95841.38;;;20.87;49.25
8047;BME280;66591;42.660;23.342;2023-01-04T11:17:03;95834.50;;;20.87;49.48
8047;BME280;66591;42.660;23.342;2023-01-04T11:19:31;95835.34;;;20.88;49.46
8047;BME280;66591;42.660;23.342;2023-01-04T11:22:03;95835.34;;;20.88;49.42
8047;BME280;66591;42.660;23.342;2023-01-04T11:24:31;95825.09;;;20.88;49.33
8047;BME280;66591;42.660;23.342;2023-01-04T11:27:03;95823.41;;;20.90;49.47
8047;BME280;66591;42.660;23.342;2023-01-04T11:30:00;95803.69;;;20.87;49.30
8047;BME280;66591;42.660;23.342;2023-01-04T11:35:12;95804.53;;;20.85;49.46
8047;BME280;66591;42.660;23.342;2023-01-04T11:37:41;95807.13;;;20.86;49.27
8047;BME280;66591;42.660;23.342;2023-01-04T11:42:42;95805.41;;;20.85;49.19
8047;BME280;66591;42.660;23.342;2023-01-04T11:45:26;95804.56;;;20.86;49.20
8047;BME280;66591;42.660;23.342;2023-01-04T11:47:56;95800.28;;;20.88;49.19
8047;BME280;66591;42.660;23.342;2023-01-04T11:50:40;95790.88;;;20.89;49.50
8047;BME280;66591;42.660;23.342;2023-01-04T11:53:26;95789.16;;;20.88;49.34
8047;BME280;66591;42.660;23.342;2023-01-04T11:56:26;95782.34;;;20.90;49.39
8047;BME280;66591;42.660;23.342;2023-01-04T12:01:44;95790.88;;;20.90;49.20
8047;BME280;66591;42.660;23.342;2023-01-04T12:04:24;95787.47;;;20.88;49.30
8047;BME280;66591;42.660;23.342;2023-01-04T12:06:58;95784.03;;;20.86;49.06
8047;BME280;66591;42.660;23.342;2023-01-04T12:09:30;95783.16;;;20.87;49.20
8047;BME280;66591;42.660;23.342;2023-01-04T12:11:58;95784.88;;;20.88;49.20
8047;BME280;66591;42.660;23.342;2023-01-04T12:14:32;95776.34;;;20.91;49.19
8047;BME280;66591;42.660;23.342;2023-01-04T12:19:24;95783.19;;;20.93;48.94
8047;BME280;66591;42.660;23.342;2023-01-04T12:21:53;95781.50;;;20.92;49.04
8047;BME280;66591;42.660;23.342;2023-01-04T12:24:23;95774.63;;;20.91;49.05
8047;BME280;66591;42.660;23.342;2023-01-04T12:26:50;95785.75;;;20.93;49.09
8047;BME280;66591;42.660;23.342;2023-01-04T12:31:49;95778.06;;;20.92;49.01
8047;BME280;66591;42.660;23.342;2023-01-04T12:50:01;95778.88;;;20.85;48.99
8047;BME280;66591;42.660;23.342;2023-01-04T12:54:55;95774.63;;;20.84;49.07
8047;BME280;66591;42.660;23.342;2023-01-04T12:57:24;95768.63;;;20.85;49.17
8047;BME280;66591;42.660;23.342;2023-01-04T13:00:06;95769.47;;;20.85;48.99
8047;BME280;66591;42.660;23.342;2023-01-04T13:02:37;95764.34;;;20.85;49.07
8047;BME280;66591;42.660;23.342;2023-01-04T13:07:48;95763.50;;;20.86;49.01
8047;BME280;66591;42.660;23.342;2023-01-04T13:10:36;95766.06;;;20.86;49.09
8047;BME280;66591;42.660;23.342;2023-01-04T13:18:38;95762.63;;;20.84;49.11
8047;BME280;66591;42.660;23.342;2023-01-04T13:21:33;95766.06;;;20.83;49.10
8047;BME280;66591;42.660;23.342;2023-01-04T13:24:05;95767.78;;;20.81;48.96
8047;BME280;66591;42.660;23.342;2023-01-04T13:26:41;95772.03;;;20.82;49.10
8047;BME280;66591;42.660;23.342;2023-01-04T13:29:14;95772.91;;;20.81;48.99
8047;BME280;66591;42.660;23.342;2023-01-04T13:39:31;95777.19;;;20.84;48.95
8047;BME280;66591;42.660;23.342;2023-01-04T13:41:57;95790.84;;;20.83;49.05
8047;BME280;66591;42.660;23.342;2023-01-04T13:44:26;95779.72;;;20.82;49.01
8047;BME280;66591;42.660;23.342;2023-01-04T13:46:58;95777.16;;;20.82;48.83
8047;BME280;66591;42.660;23.342;2023-01-04T13:49:25;95778.03;;;20.83;48.98
8047;BME280;66591;42.660;23.342;2023-01-04T13:51:51;95784.88;;;20.82;49.01
8047;BME280;66591;42.660;23.342;2023-01-04T13:54:22;95778.03;;;20.81;49.07
8047;BME280;66591;42.660;23.342;2023-01-04T13:56:48;95783.16;;;20.80;49.06
8047;BME280;66591;42.660;23.342;2023-01-04T13:59:15;95781.44;;;20.80;48.97
8047;BME280;66591;42.660;23.342;2023-01-04T14:04:23;95779.72;;;20.82;49.04
8047;BME280;66591;42.660;23.342;2023-01-04T14:06:50;95783.16;;;20.80;49.04
8047;BME280;66591;42.660;23.342;2023-01-04T14:09:23;95781.41;;;20.79;48.93
8047;BME280;66591;42.660;23.342;2023-01-04T14:11:52;95777.16;;;20.79;49.00
8047;BME280;66591;42.660;23.342;2023-01-04T14:41:38;95773.72;;;20.79;49.00
8047;BME280;66591;42.660;23.342;2023-01-04T14:46:35;95776.28;;;20.76;48.91
8047;BME280;66591;42.660;23.342;2023-01-04T14:49:01;95778.84;;;20.76;48.94
8047;BME280;66591;42.660;23.342;2023-01-04T14:51:40;95783.16;;;20.78;48.93
8047;BME280;66591;42.660;23.342;2023-01-04T14:54:08;95780.56;;;20.77;48.91
8047;BME280;66591;42.660;23.342;2023-01-04T14:56:35;95783.16;;;20.78;48.92
8047;BME280;66591;42.660;23.342;2023-01-04T14:59:00;95781.44;;;20.77;48.93
8047;BME280;66591;42.660;23.342;2023-01-04T15:01:27;95783.13;;;20.77;48.91
8047;BME280;66591;42.660;23.342;2023-01-04T15:03:52;95781.41;;;20.74;49.08
8047;BME280;66591;42.660;23.342;2023-01-04T15:06:18;95781.44;;;20.77;48.96
8047;BME280;66591;42.660;23.342;2023-01-04T15:08:43;95793.41;;;20.78;48.94
8047;BME280;66591;42.660;23.342;2023-01-04T15:11:11;95784.84;;;20.79;48.75
8047;BME280;66591;42.660;23.342;2023-01-04T15:13:37;95784.84;;;20.79;48.72
8047;BME280;66591;42.660;23.342;2023-01-04T15:16:03;95775.44;;;20.80;48.62
8047;BME280;66591;42.660;23.342;2023-01-04T15:18:29;95780.56;;;20.80;48.99
8047;BME280;66591;42.660;23.342;2023-01-04T15:20:55;95783.13;;;20.77;48.90
8047;BME280;66591;42.660;23.342;2023-01-04T15:23:20;95788.28;;;20.75;48.91
8047;BME280;66591;42.660;23.342;2023-01-04T15:25:46;95784.00;;;20.77;48.82
8047;BME280;66591;42.660;23.342;2023-01-04T15:28:12;95797.69;;;20.78;48.88
8047;BME280;66591;42.660;23.342;2023-01-04T15:30:42;95796.81;;;20.77;49.02
8047;BME280;66591;42.660;23.342;2023-01-04T15:33:09;95801.09;;;20.77;48.83
8047;BME280;66591;42.660;23.342;2023-01-04T15:35:35;95792.56;;;20.78;48.84
8047;BME280;66591;42.660;23.342;2023-01-04T15:38:00;95802.81;;;20.78;48.93